createdAt,value
2023-01-28T00:04:05.197Z,-0.66
2023-01-28T00:09:07.558Z,-0.66
2023-01-28T00:14:11.503Z,-0.67
2023-01-28T00:19:13.386Z,-0.63
2023-01-28T00:24:15.471Z,-0.69
2023-01-28T00:29:17.557Z,-0.73
2023-01-28T00:34:19.825Z,-0.68
2023-01-28T00:39:21.601Z,-0.63
2023-01-28T00:44:24.089Z,-0.60
2023-01-28T00:49:25.874Z,-0.61
2023-01-28T00:54:27.642Z,-0.70
2023-01-28T00:59:29.486Z,-0.68
2023-01-28T01:04:35.425Z,-0.86
2023-01-28T01:09:38.310Z,-0.92
2023-01-28T01:14:40.106Z,-1.09
2023-01-28T01:19:42.922Z,-1.11
2023-01-28T01:24:44.803Z,-1.09
2023-01-28T01:29:46.599Z,-1.08
2023-01-28T01:34:48.920Z,-1.14
2023-01-28T01:39:50.781Z,-1.10
2023-01-28T01:45:07.678Z,-1.17
2023-01-28T01:50:51.401Z,-1.17
2023-01-28T01:55:59.689Z,-1.11
2023-01-28T02:01:02.375Z,-1.06
2023-01-28T02:06:04.443Z,-1.16
2023-01-28T02:11:07.894Z,-1.14
2023-01-28T02:16:11.462Z,-1.11
2023-01-28T02:21:31.636Z,-1.15
2023-01-28T02:26:54.507Z,-1.15
2023-01-28T02:32:09.798Z,-1.20
2023-01-28T02:37:41.493Z,-1.16
2023-01-28T02:42:43.386Z,-1.10
2023-01-28T02:48:00.286Z,-1.00
2023-01-28T02:53:40.168Z,-0.99
2023-01-28T02:59:34.011Z,-1.05
2023-01-28T03:04:55.807Z,-1.09
2023-01-28T03:10:04.323Z,-1.11
2023-01-28T03:15:48.240Z,-1.11
2023-01-28T03:21:42.845Z,-1.09
2023-01-28T03:27:16.704Z,-1.13
2023-01-28T03:32:41.670Z,-1.10
2023-01-28T03:37:44.017Z,-1.04
2023-01-28T03:42:56.867Z,-1.14
2023-01-28T03:48:09.077Z,-1.13
2023-01-28T03:53:16.368Z,-1.20
2023-01-28T03:58:27.144Z,-1.19
2023-01-28T04:03:29.215Z,-1.20
2023-01-28T04:08:37.824Z,-1.22
2023-01-28T04:13:58.341Z,-1.24
2023-01-28T04:19:02.395Z,-1.24
2023-01-28T04:24:05.158Z,-1.33
2023-01-28T04:29:08.235Z,-1.44
2023-01-28T04:34:11.981Z,-1.51
2023-01-28T04:39:40.036Z,-1.54
2023-01-28T04:44:54.481Z,-1.63
2023-01-28T04:50:15.625Z,-1.60
2023-01-28T04:55:34.843Z,-1.56
2023-01-28T05:00:36.765Z,-1.75
2023-01-28T05:05:39.258Z,-1.62
2023-01-28T05:10:59.713Z,-1.72
2023-01-28T05:16:02.179Z,-1.91
2023-01-28T05:21:04.252Z,-1.89
2023-01-28T05:26:08.175Z,-1.83
2023-01-28T05:31:10.971Z,-2.07
2023-01-28T05:36:13.415Z,-2.00
2023-01-28T05:41:16.060Z,-1.92
2023-01-28T05:46:19.867Z,-1.91
2023-01-28T05:51:40.092Z,-1.84
2023-01-28T05:56:43.797Z,-1.89
2023-01-28T06:01:45.627Z,-1.97
2023-01-28T06:06:47.723Z,-1.89
2023-01-28T06:11:51.035Z,-1.89
2023-01-28T06:16:53.598Z,-2.00
2023-01-28T06:22:00.831Z,-2.14
2023-01-28T06:27:02.711Z,-2.20
2023-01-28T06:32:05.515Z,-2.24
2023-01-28T06:37:07.361Z,-2.24
2023-01-28T06:42:09.169Z,-2.36
2023-01-28T06:47:11.386Z,-2.39
2023-01-28T06:52:13.260Z,-2.48
2023-01-28T06:57:15.182Z,-2.63
2023-01-28T07:02:16.976Z,-2.90
2023-01-28T07:07:18.769Z,-2.85
2023-01-28T07:12:20.589Z,-2.90
2023-01-28T07:17:22.670Z,-2.85
2023-01-28T07:22:24.550Z,-3.01
2023-01-28T07:27:26.394Z,-2.94
2023-01-28T07:32:29.022Z,-2.98
2023-01-28T07:37:30.958Z,-2.97
2023-01-28T07:42:33.355Z,-2.96
2023-01-28T07:47:39.535Z,-3.03
2023-01-28T07:52:45.812Z,-2.93
2023-01-28T07:57:55.807Z,-3.11
2023-01-28T08:02:59.456Z,-3.15
2023-01-28T08:08:01.383Z,-3.25
2023-01-28T08:13:03.570Z,-3.15
2023-01-28T08:18:06.976Z,-2.94
2023-01-28T08:23:11.515Z,-3.17
2023-01-28T08:28:15.045Z,-3.11
2023-01-28T08:33:18.459Z,-3.02
2023-01-28T08:38:20.543Z,-3.04
2023-01-28T08:43:22.578Z,-2.92
2023-01-28T08:48:24.406Z,-3.04
2023-01-28T08:53:26.190Z,-2.82
2023-01-28T08:58:27.987Z,-2.72
2023-01-28T09:03:29.805Z,-2.67
2023-01-28T09:08:32.215Z,-2.77
2023-01-28T09:13:34.121Z,-2.60
2023-01-28T09:18:35.928Z,-2.50
2023-01-28T09:23:38.730Z,-2.21
2023-01-28T09:28:40.827Z,-2.34
2023-01-28T09:33:42.713Z,-2.42
2023-01-28T09:38:44.837Z,-2.58
2023-01-28T09:44:21.339Z,-2.25
2023-01-28T09:49:51.122Z,-2.12
2023-01-28T09:54:59.221Z,-2.19
2023-01-28T10:00:02.627Z,-1.73
2023-01-28T10:05:24.311Z,-2.05
2023-01-28T10:10:35.559Z,-2.00
2023-01-28T10:15:53.951Z,-1.19
2023-01-28T10:21:02.718Z,-1.50
2023-01-28T10:26:15.355Z,-1.83
2023-01-28T10:31:17.253Z,-1.68
2023-01-28T10:36:19.622Z,-1.69
2023-01-28T10:41:22.922Z,-1.15
2023-01-28T10:46:32.346Z,-1.23
2023-01-28T10:51:41.424Z,-1.48
2023-01-28T10:56:44.031Z,-1.26
2023-01-28T11:02:06.011Z,-1.56
2023-01-28T11:07:19.389Z,-2.07
2023-01-28T11:12:26.011Z,-1.96
2023-01-28T11:17:33.263Z,-2.10
2023-01-28T11:22:45.351Z,-2.18
2023-01-28T11:27:49.997Z,-2.07
2023-01-28T11:33:14.074Z,-1.94
2023-01-28T11:38:22.253Z,-2.07
2023-01-28T11:43:30.709Z,-2.11
2023-01-28T11:48:50.526Z,-1.81
2023-01-28T11:54:13.659Z,-1.26
2023-01-28T11:59:42.988Z,-1.39
2023-01-28T12:05:11.920Z,-1.27
2023-01-28T12:10:48.976Z,-1.15
2023-01-28T12:16:12.213Z,-1.36
2023-01-28T12:21:26.124Z,-1.36
2023-01-28T12:26:30.819Z,-1.68
2023-01-28T12:31:41.936Z,-1.87
2023-01-28T12:37:04.636Z,-2.22
2023-01-28T12:42:20.376Z,-1.71
2023-01-28T12:47:34.725Z,-1.52
2023-01-28T12:52:43.061Z,-1.78
2023-01-28T12:57:45.616Z,-1.66
2023-01-28T13:02:56.750Z,-1.87
2023-01-28T13:08:05.672Z,-1.84
2023-01-28T13:13:08.027Z,-2.06
2023-01-28T13:18:45.236Z,-1.85
2023-01-28T13:23:49.012Z,-1.47
2023-01-28T13:28:52.606Z,-1.48
2023-01-28T13:33:54.380Z,-1.95
2023-01-28T13:39:07.360Z,-1.92
2023-01-28T13:44:30.405Z,-1.89
2023-01-28T13:49:48.961Z,-1.44
2023-01-28T13:55:05.223Z,-1.38
2023-01-28T14:00:29.599Z,-1.60
2023-01-28T14:05:46.707Z,-1.97
2023-01-28T14:10:57.598Z,-1.93
2023-01-28T14:16:23.756Z,-1.88
2023-01-28T14:21:27.332Z,-1.92
2023-01-28T14:27:31.343Z,-1.77
2023-01-28T14:32:34.569Z,-1.66
2023-01-28T14:37:36.676Z,-1.84
2023-01-28T14:42:43.602Z,-1.65
2023-01-28T14:48:08.473Z,-1.69
2023-01-28T14:53:26.301Z,-1.96
2023-01-28T14:58:35.589Z,-1.71
2023-01-28T15:03:46.330Z,-1.81
2023-01-28T15:08:48.431Z,-2.03
2023-01-28T15:13:55.402Z,-1.83
2023-01-28T15:19:00.917Z,-1.72
2023-01-28T15:24:03.330Z,-1.79
2023-01-28T15:29:05.323Z,-1.78
2023-01-28T15:34:14.292Z,-1.73
2023-01-28T15:39:22.732Z,-1.81
2023-01-28T15:44:37.526Z,-1.90
2023-01-28T15:49:45.146Z,-2.10
2023-01-28T15:54:51.955Z,-2.23
2023-01-28T16:00:11.520Z,-2.54
2023-01-28T16:05:33.033Z,-2.45
2023-01-28T16:10:35.229Z,-2.49
2023-01-28T16:15:39.354Z,-2.50
2023-01-28T16:20:41.253Z,-2.55
2023-01-28T16:25:43.038Z,-2.62
2023-01-28T16:30:44.967Z,-2.53
2023-01-28T16:36:04.520Z,-2.48
2023-01-28T16:41:28.281Z,-2.65
2023-01-28T16:46:30.179Z,-2.63
2023-01-28T16:51:32.205Z,-2.75
2023-01-28T16:56:49.401Z,-2.59
2023-01-28T17:01:51.479Z,-2.63
2023-01-28T17:06:54.052Z,-2.80
2023-01-28T17:11:56.183Z,-2.97
2023-01-28T17:16:57.999Z,-2.87
2023-01-28T17:22:00.064Z,-2.65
2023-01-28T17:27:01.883Z,-2.75
2023-01-28T17:32:03.922Z,-2.86
2023-01-28T17:37:05.851Z,-2.93
2023-01-28T17:42:07.676Z,-2.66
2023-01-28T17:47:09.871Z,-2.67
2023-01-28T17:52:11.683Z,-2.62
2023-01-28T17:57:13.553Z,-2.49
2023-01-28T18:02:15.953Z,-2.45
2023-01-28T18:07:17.737Z,-2.50
2023-01-28T18:12:19.647Z,-2.52
2023-01-28T18:17:26.748Z,-2.48
2023-01-28T18:22:28.614Z,-2.58
2023-01-28T18:27:30.450Z,-2.51
2023-01-28T18:32:32.281Z,-2.55
2023-01-28T18:37:34.059Z,-2.60
2023-01-28T18:42:37.645Z,-2.51
2023-01-28T18:47:39.473Z,-2.37
2023-01-28T18:52:41.551Z,-2.39
2023-01-28T18:57:43.397Z,-2.23
2023-01-28T19:02:45.226Z,-2.29
2023-01-28T19:07:47.069Z,-2.51
2023-01-28T19:12:49.010Z,-2.71
2023-01-28T19:17:50.811Z,-2.66
2023-01-28T19:22:52.786Z,-2.64
2023-01-28T19:27:55.188Z,-2.54
2023-01-28T19:32:56.973Z,-2.45
2023-01-28T19:37:59.013Z,-2.36
2023-01-28T19:43:00.885Z,-2.51
2023-01-28T19:48:02.887Z,-2.57
2023-01-28T19:53:04.732Z,-2.65
2023-01-28T19:58:06.753Z,-2.50
2023-01-28T20:03:08.648Z,-2.36
2023-01-28T20:08:11.071Z,-2.41
2023-01-28T20:13:12.888Z,-2.55
2023-01-28T20:18:14.799Z,-2.52
2023-01-28T20:23:16.602Z,-2.50
2023-01-28T20:28:18.507Z,-2.65
2023-01-28T20:33:21.187Z,-2.76
2023-01-28T20:38:23.098Z,-2.78
2023-01-28T20:43:24.925Z,-2.77
2023-01-28T20:48:27.465Z,-2.84
2023-01-28T20:53:29.277Z,-2.56
2023-01-28T20:58:31.505Z,-2.56
2023-01-28T21:03:34.078Z,-2.49
2023-01-28T21:08:35.998Z,-2.49
2023-01-28T21:13:38.595Z,-2.41
2023-01-28T21:18:40.449Z,-2.46
2023-01-28T21:23:42.312Z,-2.40
2023-01-28T21:28:44.994Z,-2.38
2023-01-28T21:33:51.336Z,-2.41
2023-01-28T21:38:57.702Z,-2.52
2023-01-28T21:43:59.857Z,-2.42
2023-01-28T21:49:03.992Z,-2.41
2023-01-28T21:54:19.657Z,-2.48
2023-01-28T21:59:30.766Z,-2.44
2023-01-28T22:04:35.342Z,-2.52
2023-01-28T22:09:37.868Z,-2.43
2023-01-28T22:14:39.754Z,-2.36
2023-01-28T22:19:47.819Z,-2.37
2023-01-28T22:24:49.671Z,-2.58
2023-01-28T22:29:51.924Z,-2.66
2023-01-28T22:34:55.038Z,-2.59
2023-01-28T22:39:56.917Z,-2.67
2023-01-28T22:44:58.727Z,-2.74
2023-01-28T22:50:00.522Z,-2.80
2023-01-28T22:55:02.635Z,-2.61
2023-01-28T23:00:09.199Z,-2.64
2023-01-28T23:05:11.085Z,-2.78
2023-01-28T23:10:12.941Z,-2.77
2023-01-28T23:15:33.300Z,-2.80
2023-01-28T23:20:53.579Z,-2.81
2023-01-28T23:25:55.402Z,-2.67
2023-01-28T23:30:57.383Z,-2.66
2023-01-28T23:35:59.382Z,-2.66
2023-01-28T23:41:02.269Z,-2.69
2023-01-28T23:46:04.459Z,-2.63
2023-01-28T23:51:09.329Z,-2.71
2023-01-28T23:56:11.310Z,-2.66
